sensor_id;sensor_type;location;lat;lon;timestamp;temperature;humidity
67249;SHT31;63247;54.300;18.592;2022-11-22T00:00:28;-1.80;98.90
67249;SHT31;63247;54.300;18.592;2022-11-22T00:02:54;-1.81;98.89
67249;SHT31;63247;54.300;18.592;2022-11-22T00:05:20;-1.87;98.98
67249;SHT31;63247;54.300;18.592;2022-11-22T00:07:45;-1.90;99.09
67249;SHT31;63247;54.300;18.592;2022-11-22T00:10:13;-1.89;99.10
67249;SHT31;63247;54.300;18.592;2022-11-22T00:12:40;-1.91;99.08
67249;SHT31;63247;54.300;18.592;2022-11-22T00:15:06;-1.90;99.11
67249;SHT31;63247;54.300;18.592;2022-11-22T00:17:33;-1.86;99.06
67249;SHT31;63247;54.300;18.592;2022-11-22T00:19:58;-1.87;99.07
67249;SHT31;63247;54.300;18.592;2022-11-22T00:22:24;-1.86;98.97
67249;SHT31;63247;54.300;18.592;2022-11-22T00:24:51;-1.81;99.03
67249;SHT31;63247;54.300;18.592;2022-11-22T00:27:17;-1.84;99.02
67249;SHT31;63247;54.300;18.592;2022-11-22T00:29:43;-1.83;99.02
67249;SHT31;63247;54.300;18.592;2022-11-22T00:32:09;-1.84;98.96
67249;SHT31;63247;54.300;18.592;2022-11-22T00:34:34;-1.76;98.91
67249;SHT31;63247;54.300;18.592;2022-11-22T00:37:00;-1.72;98.95
67249;SHT31;63247;54.300;18.592;2022-11-22T00:39:25;-1.69;98.86
67249;SHT31;63247;54.300;18.592;2022-11-22T00:41:51;-1.66;98.82
67249;SHT31;63247;54.300;18.592;2022-11-22T00:44:16;-1.63;98.95
67249;SHT31;63247;54.300;18.592;2022-11-22T00:46:42;-1.58;98.92
67249;SHT31;63247;54.300;18.592;2022-11-22T00:49:07;-1.62;98.86
67249;SHT31;63247;54.300;18.592;2022-11-22T00:51:33;-1.60;98.75
67249;SHT31;63247;54.300;18.592;2022-11-22T00:53:58;-1.59;98.79
67249;SHT31;63247;54.300;18.592;2022-11-22T00:56:24;-1.60;98.61
67249;SHT31;63247;54.300;18.592;2022-11-22T00:58:49;-1.69;98.42
67249;SHT31;63247;54.300;18.592;2022-11-22T01:01:15;-1.72;98.65
67249;SHT31;63247;54.300;18.592;2022-11-22T01:03:40;-1.70;98.71
67249;SHT31;63247;54.300;18.592;2022-11-22T01:06:06;-1.74;99.00
67249;SHT31;63247;54.300;18.592;2022-11-22T01:08:31;-1.70;98.94
67249;SHT31;63247;54.300;18.592;2022-11-22T01:10:57;-1.67;98.63
67249;SHT31;63247;54.300;18.592;2022-11-22T01:13:25;-1.59;98.49
67249;SHT31;63247;54.300;18.592;2022-11-22T01:15:50;-1.52;98.48
67249;SHT31;63247;54.300;18.592;2022-11-22T01:18:16;-1.56;98.60
67249;SHT31;63247;54.300;18.592;2022-11-22T01:20:42;-1.58;98.83
67249;SHT31;63247;54.300;18.592;2022-11-22T01:23:07;-1.56;98.83
67249;SHT31;63247;54.300;18.592;2022-11-22T01:25:33;-1.55;98.80
67249;SHT31;63247;54.300;18.592;2022-11-22T01:27:58;-1.56;98.80
67249;SHT31;63247;54.300;18.592;2022-11-22T01:30:24;-1.62;99.18
67249;SHT31;63247;54.300;18.592;2022-11-22T01:32:49;-1.60;99.13
67249;SHT31;63247;54.300;18.592;2022-11-22T01:35:15;-1.59;99.22
67249;SHT31;63247;54.300;18.592;2022-11-22T01:37:40;-1.59;98.97
67249;SHT31;63247;54.300;18.592;2022-11-22T01:40:06;-1.63;99.01
67249;SHT31;63247;54.300;18.592;2022-11-22T01:42:52;-1.60;99.15
67249;SHT31;63247;54.300;18.592;2022-11-22T01:48:05;-1.52;98.82
67249;SHT31;63247;54.300;18.592;2022-11-22T01:50:34;-1.60;98.68
67249;SHT31;63247;54.300;18.592;2022-11-22T01:53:08;-1.63;98.74
67249;SHT31;63247;54.300;18.592;2022-11-22T01:55:35;-1.59;98.80
67249;SHT31;63247;54.300;18.592;2022-11-22T01:58:01;-1.49;98.74
67249;SHT31;63247;54.300;18.592;2022-11-22T02:00:26;-1.48;98.62
67249;SHT31;63247;54.300;18.592;2022-11-22T02:02:55;-1.51;98.47
67249;SHT31;63247;54.300;18.592;2022-11-22T02:05:25;-1.53;98.72
67249;SHT31;63247;54.300;18.592;2022-11-22T02:07:57;-1.48;99.06
67249;SHT31;63247;54.300;18.592;2022-11-22T02:10:28;-1.49;99.05
67249;SHT31;63247;54.300;18.592;2022-11-22T02:12:56;-1.43;99.11
67249;SHT31;63247;54.300;18.592;2022-11-22T02:15:22;-1.43;98.93
67249;SHT31;63247;54.300;18.592;2022-11-22T02:17:50;-1.39;98.86
67249;SHT31;63247;54.300;18.592;2022-11-22T02:20:16;-1.38;98.53
67249;SHT31;63247;54.300;18.592;2022-11-22T02:28:02;-1.34;98.50
67249;SHT31;63247;54.300;18.592;2022-11-22T02:30:28;-1.32;98.54
67249;SHT31;63247;54.300;18.592;2022-11-22T02:32:53;-1.30;98.65
67249;SHT31;63247;54.300;18.592;2022-11-22T02:35:22;-1.34;98.68
67249;SHT31;63247;54.300;18.592;2022-11-22T02:38:12;-1.34;98.78
67249;SHT31;63247;54.300;18.592;2022-11-22T02:40:49;-1.43;98.61
67249;SHT31;63247;54.300;18.592;2022-11-22T02:43:17;-1.39;98.68
67249;SHT31;63247;54.300;18.592;2022-11-22T02:45:44;-1.34;98.76
67249;SHT31;63247;54.300;18.592;2022-11-22T02:48:12;-1.38;98.66
67249;SHT31;63247;54.300;18.592;2022-11-22T02:50:38;-1.34;98.76
67249;SHT31;63247;54.300;18.592;2022-11-22T02:53:05;-1.34;98.66
67249;SHT31;63247;54.300;18.592;2022-11-22T02:55:31;-1.32;98.60
67249;SHT31;63247;54.300;18.592;2022-11-22T02:57:56;-1.32;98.39
67249;SHT31;63247;54.300;18.592;2022-11-22T03:00:22;-1.31;98.24
67249;SHT31;63247;54.300;18.592;2022-11-22T03:02:48;-1.34;98.26
67249;SHT31;63247;54.300;18.592;2022-11-22T03:05:13;-1.36;98.29
67249;SHT31;63247;54.300;18.592;2022-11-22T03:07:39;-1.46;98.38
67249;SHT31;63247;54.300;18.592;2022-11-22T03:10:05;-1.41;98.49
67249;SHT31;63247;54.300;18.592;2022-11-22T03:12:30;-1.42;98.38
67249;SHT31;63247;54.300;18.592;2022-11-22T03:14:56;-1.43;98.34
67249;SHT31;63247;54.300;18.592;2022-11-22T03:17:21;-1.45;98.22
67249;SHT31;63247;54.300;18.592;2022-11-22T03:19:47;-1.43;98.33
67249;SHT31;63247;54.300;18.592;2022-11-22T03:22:12;-1.43;98.26
67249;SHT31;63247;54.300;18.592;2022-11-22T03:24:38;-1.43;98.25
67249;SHT31;63247;54.300;18.592;2022-11-22T03:27:03;-1.41;98.08
67249;SHT31;63247;54.300;18.592;2022-11-22T03:29:29;-1.42;97.92
67249;SHT31;63247;54.300;18.592;2022-11-22T03:31:54;-1.42;98.15
67249;SHT31;63247;54.300;18.592;2022-11-22T03:34:20;-1.45;98.13
67249;SHT31;63247;54.300;18.592;2022-11-22T03:36:45;-1.43;98.28
67249;SHT31;63247;54.300;18.592;2022-11-22T03:39:11;-1.41;98.33
67249;SHT31;63247;54.300;18.592;2022-11-22T03:41:36;-1.41;98.35
67249;SHT31;63247;54.300;18.592;2022-11-22T03:44:02;-1.39;98.24
67249;SHT31;63247;54.300;18.592;2022-11-22T03:46:28;-1.49;98.14
67249;SHT31;63247;54.300;18.592;2022-11-22T03:48:54;-1.45;98.33
67249;SHT31;63247;54.300;18.592;2022-11-22T03:51:19;-1.45;98.34
67249;SHT31;63247;54.300;18.592;2022-11-22T03:53:44;-1.41;98.29
67249;SHT31;63247;54.300;18.592;2022-11-22T03:56:10;-1.36;98.23
67249;SHT31;63247;54.300;18.592;2022-11-22T03:58:35;-1.35;98.36
67249;SHT31;63247;54.300;18.592;2022-11-22T04:01:01;-1.38;98.28
67249;SHT31;63247;54.300;18.592;2022-11-22T04:03:27;-1.41;98.42
67249;SHT31;63247;54.300;18.592;2022-11-22T04:05:52;-1.32;98.35
67249;SHT31;63247;54.300;18.592;2022-11-22T04:08:18;-1.31;98.40
67249;SHT31;63247;54.300;18.592;2022-11-22T04:10:43;-1.30;98.44
67249;SHT31;63247;54.300;18.592;2022-11-22T04:13:09;-1.28;98.49
67249;SHT31;63247;54.300;18.592;2022-11-22T04:15:35;-1.24;98.51
67249;SHT31;63247;54.300;18.592;2022-11-22T04:18:01;-1.24;98.54
67249;SHT31;63247;54.300;18.592;2022-11-22T04:20:28;-1.22;98.42
67249;SHT31;63247;54.300;18.592;2022-11-22T04:23:18;-1.18;98.50
67249;SHT31;63247;54.300;18.592;2022-11-22T04:25:46;-1.21;98.42
67249;SHT31;63247;54.300;18.592;2022-11-22T04:28:14;-1.21;98.14
67249;SHT31;63247;54.300;18.592;2022-11-22T04:30:39;-1.14;98.30
67249;SHT31;63247;54.300;18.592;2022-11-22T04:33:23;-1.19;98.13
67249;SHT31;63247;54.300;18.592;2022-11-22T04:35:49;-1.19;98.20
67249;SHT31;63247;54.300;18.592;2022-11-22T04:38:16;-1.27;98.24
67249;SHT31;63247;54.300;18.592;2022-11-22T04:40:42;-1.30;98.42
67249;SHT31;63247;54.300;18.592;2022-11-22T04:43:24;-1.24;98.42
67249;SHT31;63247;54.300;18.592;2022-11-22T04:46:09;-0.98;97.80
67249;SHT31;63247;54.300;18.592;2022-11-22T04:48:35;-0.94;97.68
67249;SHT31;63247;54.300;18.592;2022-11-22T04:51:02;-1.04;97.88
67249;SHT31;63247;54.300;18.592;2022-11-22T04:53:46;-1.12;98.24
67249;SHT31;63247;54.300;18.592;2022-11-22T04:56:12;-1.11;98.15
67249;SHT31;63247;54.300;18.592;2022-11-22T04:58:37;-1.11;98.26
67249;SHT31;63247;54.300;18.592;2022-11-22T05:01:03;-1.21;98.55
67249;SHT31;63247;54.300;18.592;2022-11-22T05:03:28;-1.09;98.37
67249;SHT31;63247;54.300;18.592;2022-11-22T05:05:54;-1.09;98.36
67249;SHT31;63247;54.300;18.592;2022-11-22T05:08:19;-1.08;98.48
67249;SHT31;63247;54.300;18.592;2022-11-22T05:10:47;-1.04;98.38
67249;SHT31;63247;54.300;18.592;2022-11-22T05:13:39;-1.08;98.74
67249;SHT31;63247;54.300;18.592;2022-11-22T05:16:07;-1.14;98.63
67249;SHT31;63247;54.300;18.592;2022-11-22T05:18:33;-1.09;98.88
67249;SHT31;63247;54.300;18.592;2022-11-22T05:21:06;-1.12;98.98
67249;SHT31;63247;54.300;18.592;2022-11-22T05:23:31;-0.97;98.71
67249;SHT31;63247;54.300;18.592;2022-11-22T05:26:16;-1.04;98.53
67249;SHT31;63247;54.300;18.592;2022-11-22T05:28:41;-1.00;98.46
67249;SHT31;63247;54.300;18.592;2022-11-22T05:31:14;-1.00;98.95
67249;SHT31;63247;54.300;18.592;2022-11-22T05:33:42;-0.90;98.48
67249;SHT31;63247;54.300;18.592;2022-11-22T05:36:09;-0.93;98.74
67249;SHT31;63247;54.300;18.592;2022-11-22T05:38:35;-1.03;98.65
67249;SHT31;63247;54.300;18.592;2022-11-22T05:41:03;-1.05;99.00
67249;SHT31;63247;54.300;18.592;2022-11-22T05:43:29;-1.05;99.01
67249;SHT31;63247;54.300;18.592;2022-11-22T05:45:55;-1.07;99.02
67249;SHT31;63247;54.300;18.592;2022-11-22T05:48:20;-1.08;99.17
67249;SHT31;63247;54.300;18.592;2022-11-22T05:50:46;-1.14;99.36
67249;SHT31;63247;54.300;18.592;2022-11-22T05:53:11;-0.97;99.02
67249;SHT31;63247;54.300;18.592;2022-11-22T05:55:37;-0.91;99.07
67249;SHT31;63247;54.300;18.592;2022-11-22T05:58:02;-1.01;99.16
67249;SHT31;63247;54.300;18.592;2022-11-22T06:00:29;-1.03;99.13
67249;SHT31;63247;54.300;18.592;2022-11-22T06:03:02;-1.07;99.40
67249;SHT31;63247;54.300;18.592;2022-11-22T06:05:28;-1.04;99.47
67249;SHT31;63247;54.300;18.592;2022-11-22T06:07:58;-0.91;99.12
67249;SHT31;63247;54.300;18.592;2022-11-22T06:10:24;-0.81;98.99
67249;SHT31;63247;54.300;18.592;2022-11-22T06:12:50;-0.80;98.63
67249;SHT31;63247;54.300;18.592;2022-11-22T06:15:15;-0.83;98.81
67249;SHT31;63247;54.300;18.592;2022-11-22T06:17:41;-0.72;98.44
67249;SHT31;63247;54.300;18.592;2022-11-22T06:20:07;-0.79;99.09
67249;SHT31;63247;54.300;18.592;2022-11-22T06:22:33;-0.64;98.55
67249;SHT31;63247;54.300;18.592;2022-11-22T06:24:58;-0.63;98.62
67249;SHT31;63247;54.300;18.592;2022-11-22T06:27:24;-0.67;98.55
67249;SHT31;63247;54.300;18.592;2022-11-22T06:29:49;-0.67;98.85
67249;SHT31;63247;54.300;18.592;2022-11-22T06:32:15;-0.73;98.83
67249;SHT31;63247;54.300;18.592;2022-11-22T06:34:40;-0.67;98.95
67249;SHT31;63247;54.300;18.592;2022-11-22T06:37:06;-0.63;98.75
67249;SHT31;63247;54.300;18.592;2022-11-22T06:39:31;-0.72;98.99
67249;SHT31;63247;54.300;18.592;2022-11-22T06:41:57;-0.81;99.30
67249;SHT31;63247;54.300;18.592;2022-11-22T06:44:22;-0.87;99.62
67249;SHT31;63247;54.300;18.592;2022-11-22T06:46:48;-0.70;99.32
67249;SHT31;63247;54.300;18.592;2022-11-22T06:49:13;-0.74;99.40
67249;SHT31;63247;54.300;18.592;2022-11-22T06:51:39;-0.73;99.43
67249;SHT31;63247;54.300;18.592;2022-11-22T06:54:04;-0.76;99.79
67249;SHT31;63247;54.300;18.592;2022-11-22T06:56:35;-0.77;99.96
67249;SHT31;63247;54.300;18.592;2022-11-22T06:59:02;-0.60;99.67
67249;SHT31;63247;54.300;18.592;2022-11-22T07:01:28;-0.67;99.70
67249;SHT31;63247;54.300;18.592;2022-11-22T07:03:55;-0.42;99.29
67249;SHT31;63247;54.300;18.592;2022-11-22T07:06:23;-0.36;98.89
67249;SHT31;63247;54.300;18.592;2022-11-22T07:08:48;-0.40;98.97
67249;SHT31;63247;54.300;18.592;2022-11-22T07:11:18;-0.42;99.04
67249;SHT31;63247;54.300;18.592;2022-11-22T07:13:44;-0.50;99.20
67249;SHT31;63247;54.300;18.592;2022-11-22T07:16:12;-0.43;99.16
67249;SHT31;63247;54.300;18.592;2022-11-22T07:18:39;-0.52;99.30
67249;SHT31;63247;54.300;18.592;2022-11-22T07:21:10;-0.49;99.22
67249;SHT31;63247;54.300;18.592;2022-11-22T07:23:37;-0.55;99.61
67249;SHT31;63247;54.300;18.592;2022-11-22T07:26:03;-0.55;99.76
67249;SHT31;63247;54.300;18.592;2022-11-22T07:28:29;-0.29;99.45
67249;SHT31;63247;54.300;18.592;2022-11-22T07:31:02;-0.39;99.69
67249;SHT31;63247;54.300;18.592;2022-11-22T07:33:29;-0.39;99.37
67249;SHT31;63247;54.300;18.592;2022-11-22T07:35:54;-0.39;99.64
67249;SHT31;63247;54.300;18.592;2022-11-22T07:38:20;-0.30;99.31
67249;SHT31;63247;54.300;18.592;2022-11-22T07:40:46;-0.29;99.48
67249;SHT31;63247;54.300;18.592;2022-11-22T07:43:11;-0.33;99.52
67249;SHT31;63247;54.300;18.592;2022-11-22T07:45:37;-0.39;99.90
67249;SHT31;63247;54.300;18.592;2022-11-22T07:48:02;-0.36;99.87
67249;SHT31;63247;54.300;18.592;2022-11-22T07:50:28;-0.30;99.73
67249;SHT31;63247;54.300;18.592;2022-11-22T07:52:58;-0.39;99.99
67249;SHT31;63247;54.300;18.592;2022-11-22T07:55:25;-0.29;99.99
67249;SHT31;63247;54.300;18.592;2022-11-22T07:57:52;-0.28;99.94
67249;SHT31;63247;54.300;18.592;2022-11-22T08:00:18;-0.26;99.99
67249;SHT31;63247;54.300;18.592;2022-11-22T08:02:43;-0.28;99.99
67249;SHT31;63247;54.300;18.592;2022-11-22T08:05:09;-0.36;99.99
67249;SHT31;63247;54.300;18.592;2022-11-22T08:07:34;-0.29;99.99
67249;SHT31;63247;54.300;18.592;2022-11-22T08:10:00;-0.25;99.99
67249;SHT31;63247;54.300;18.592;2022-11-22T08:12:25;-0.19;99.99
67249;SHT31;63247;54.300;18.592;2022-11-22T08:14:51;-0.29;99.99
67249;SHT31;63247;54.300;18.592;2022-11-22T08:17:16;-0.30;99.99
67249;SHT31;63247;54.300;18.592;2022-11-22T08:19:42;-0.33;99.99
67249;SHT31;63247;54.300;18.592;2022-11-22T08:22:07;-0.33;99.99
67249;SHT31;63247;54.300;18.592;2022-11-22T08:24:33;-0.15;99.99
67249;SHT31;63247;54.300;18.592;2022-11-22T08:26:58;-0.23;99.99
67249;SHT31;63247;54.300;18.592;2022-11-22T08:29:24;-0.25;99.99
67249;SHT31;63247;54.300;18.592;2022-11-22T08:31:49;-0.09;99.99
67249;SHT31;63247;54.300;18.592;2022-11-22T08:34:15;-0.09;99.99
67249;SHT31;63247;54.300;18.592;2022-11-22T08:36:40;-0.21;99.99
67249;SHT31;63247;54.300;18.592;2022-11-22T08:39:06;-0.15;99.99
67249;SHT31;63247;54.300;18.592;2022-11-22T08:41:31;-0.09;99.99
67249;SHT31;63247;54.300;18.592;2022-11-22T08:43:57;-0.11;99.99
67249;SHT31;63247;54.300;18.592;2022-11-22T08:46:25;-0.16;99.99
67249;SHT31;63247;54.300;18.592;2022-11-22T08:48:51;-0.02;99.99
67249;SHT31;63247;54.300;18.592;2022-11-22T08:51:18;-0.09;99.99
67249;SHT31;63247;54.300;18.592;2022-11-22T08:53:43;-0.01;99.99
67249;SHT31;63247;54.300;18.592;2022-11-22T08:56:11;-0.12;99.99
67249;SHT31;63247;54.300;18.592;2022-11-22T08:58:37;-0.05;99.99
67249;SHT31;63247;54.300;18.592;2022-11-22T09:01:08;-0.02;99.99
67249;SHT31;63247;54.300;18.592;2022-11-22T09:03:35;-0.04;99.99
67249;SHT31;63247;54.300;18.592;2022-11-22T09:06:02;-0.02;99.99
67249;SHT31;63247;54.300;18.592;2022-11-22T09:08:29;-0.02;99.99
67249;SHT31;63247;54.300;18.592;2022-11-22T09:10:54;-0.04;99.99
67249;SHT31;63247;54.300;18.592;2022-11-22T09:13:20;-0.02;99.80
67249;SHT31;63247;54.300;18.592;2022-11-22T09:15:45;0.05;99.99
67249;SHT31;63247;54.300;18.592;2022-11-22T09:18:11;0.13;99.54
67249;SHT31;63247;54.300;18.592;2022-11-22T09:20:36;0.10;99.28
67249;SHT31;63247;54.300;18.592;2022-11-22T09:23:02;0.09;99.33
67249;SHT31;63247;54.300;18.592;2022-11-22T09:25:28;0.06;99.15
67249;SHT31;63247;54.300;18.592;2022-11-22T09:27:54;0.14;99.29
67249;SHT31;63247;54.300;18.592;2022-11-22T09:30:19;0.12;99.15
67249;SHT31;63247;54.300;18.592;2022-11-22T09:32:46;0.16;99.22
67249;SHT31;63247;54.300;18.592;2022-11-22T09:35:11;0.09;99.06
67249;SHT31;63247;54.300;18.592;2022-11-22T09:37:37;0.16;98.90
67249;SHT31;63247;54.300;18.592;2022-11-22T09:40:03;0.07;99.10
67249;SHT31;63247;54.300;18.592;2022-11-22T09:42:52;0.12;99.02
67249;SHT31;63247;54.300;18.592;2022-11-22T09:48:39;0.16;98.20
67249;SHT31;63247;54.300;18.592;2022-11-22T09:51:20;0.19;98.41
67249;SHT31;63247;54.300;18.592;2022-11-22T09:53:53;0.20;98.07
67249;SHT31;63247;54.300;18.592;2022-11-22T09:56:23;0.20;98.02
67249;SHT31;63247;54.300;18.592;2022-11-22T09:58:54;0.29;97.97
67249;SHT31;63247;54.300;18.592;2022-11-22T10:01:26;0.33;97.72
67249;SHT31;63247;54.300;18.592;2022-11-22T10:04:13;0.32;97.73
67249;SHT31;63247;54.300;18.592;2022-11-22T10:06:42;0.36;97.47
67249;SHT31;63247;54.300;18.592;2022-11-22T10:11:53;0.32;97.21
67249;SHT31;63247;54.300;18.592;2022-11-22T10:20:11;0.09;97.43
67249;SHT31;63247;54.300;18.592;2022-11-22T10:22:37;0.09;97.81
67249;SHT31;63247;54.300;18.592;2022-11-22T10:27:40;0.07;97.17
67249;SHT31;63247;54.300;18.592;2022-11-22T10:30:14;0.06;96.26
67249;SHT31;63247;54.300;18.592;2022-11-22T10:35:49;0.16;95.54
67249;SHT31;63247;54.300;18.592;2022-11-22T10:41:44;0.24;95.62
67249;SHT31;63247;54.300;18.592;2022-11-22T10:46:59;0.24;94.98
67249;SHT31;63247;54.300;18.592;2022-11-22T10:54:51;0.46;94.68
67249;SHT31;63247;54.300;18.592;2022-11-22T10:57:40;0.41;94.38
67249;SHT31;63247;54.300;18.592;2022-11-22T11:00:28;0.47;94.21
67249;SHT31;63247;54.300;18.592;2022-11-22T11:03:01;0.43;94.68
67249;SHT31;63247;54.300;18.592;2022-11-22T11:05:38;0.47;94.57
67249;SHT31;63247;54.300;18.592;2022-11-22T11:08:10;0.54;94.76
67249;SHT31;63247;54.300;18.592;2022-11-22T11:10:40;0.44;94.52
67249;SHT31;63247;54.300;18.592;2022-11-22T11:13:21;0.62;94.62
67249;SHT31;63247;54.300;18.592;2022-11-22T11:15:50;0.57;94.06
67249;SHT31;63247;54.300;18.592;2022-11-22T11:18:40;0.47;94.29
67249;SHT31;63247;54.300;18.592;2022-11-22T11:21:11;0.49;94.55
67249;SHT31;63247;54.300;18.592;2022-11-22T11:23:37;0.44;94.66
67249;SHT31;63247;54.300;18.592;2022-11-22T11:26:21;0.49;94.62
67249;SHT31;63247;54.300;18.592;2022-11-22T11:28:48;0.43;94.76
67249;SHT31;63247;54.300;18.592;2022-11-22T11:31:14;0.37;94.67
67249;SHT31;63247;54.300;18.592;2022-11-22T11:33:44;0.33;94.92
67249;SHT31;63247;54.300;18.592;2022-11-22T11:36:22;0.30;95.13
67249;SHT31;63247;54.300;18.592;2022-11-22T11:38:52;0.33;95.18
67249;SHT31;63247;54.300;18.592;2022-11-22T11:41:30;0.30;95.68
67249;SHT31;63247;54.300;18.592;2022-11-22T11:43:58;0.27;95.57
67249;SHT31;63247;54.300;18.592;2022-11-22T11:46:26;0.32;95.48
67249;SHT31;63247;54.300;18.592;2022-11-22T11:49:13;0.30;95.37
67249;SHT31;63247;54.300;18.592;2022-11-22T11:51:44;0.23;95.18
67249;SHT31;63247;54.300;18.592;2022-11-22T11:54:20;0.19;95.77
67249;SHT31;63247;54.300;18.592;2022-11-22T11:56:56;0.26;95.77
67249;SHT31;63247;54.300;18.592;2022-11-22T12:02:02;0.14;96.03
67249;SHT31;63247;54.300;18.592;2022-11-22T12:04:31;0.13;96.63
67249;SHT31;63247;54.300;18.592;2022-11-22T12:07:09;0.07;95.98
67249;SHT31;63247;54.300;18.592;2022-11-22T12:09:45;0.06;96.29
67249;SHT31;63247;54.300;18.592;2022-11-22T12:12:45;0.13;96.36
67249;SHT31;63247;54.300;18.592;2022-11-22T12:15:24;0.12;96.54
67249;SHT31;63247;54.300;18.592;2022-11-22T12:23:23;0.17;96.47
67249;SHT31;63247;54.300;18.592;2022-11-22T12:25:53;0.23;96.73
67249;SHT31;63247;54.300;18.592;2022-11-22T12:28:22;0.34;96.85
67249;SHT31;63247;54.300;18.592;2022-11-22T12:31:23;0.37;96.94
67249;SHT31;63247;54.300;18.592;2022-11-22T12:33:54;0.26;97.53
67249;SHT31;63247;54.300;18.592;2022-11-22T12:36:31;0.29;97.07
67249;SHT31;63247;54.300;18.592;2022-11-22T12:39:00;0.36;97.04
67249;SHT31;63247;54.300;18.592;2022-11-22T12:41:27;0.41;96.74
67249;SHT31;63247;54.300;18.592;2022-11-22T12:44:02;0.34;97.00
67249;SHT31;63247;54.300;18.592;2022-11-22T12:46:34;0.47;96.81
67249;SHT31;63247;54.300;18.592;2022-11-22T12:49:11;0.50;96.49
67249;SHT31;63247;54.300;18.592;2022-11-22T12:55:04;0.37;96.99
67249;SHT31;63247;54.300;18.592;2022-11-22T13:00:03;0.61;96.10
67249;SHT31;63247;54.300;18.592;2022-11-22T13:05:22;0.67;95.81
67249;SHT31;63247;54.300;18.592;2022-11-22T13:10:34;0.64;96.16
67249;SHT31;63247;54.300;18.592;2022-11-22T13:13:02;0.78;95.83
67249;SHT31;63247;54.300;18.592;2022-11-22T13:15:31;0.72;96.16
67249;SHT31;63247;54.300;18.592;2022-11-22T13:17:57;0.62;96.49
67249;SHT31;63247;54.300;18.592;2022-11-22T13:20:35;0.58;96.74
67249;SHT31;63247;54.300;18.592;2022-11-22T13:23:19;0.68;96.74
67249;SHT31;63247;54.300;18.592;2022-11-22T13:25:57;0.71;96.80
67249;SHT31;63247;54.300;18.592;2022-11-22T13:28:33;0.67;97.04
67249;SHT31;63247;54.300;18.592;2022-11-22T13:33:41;0.56;97.82
67249;SHT31;63247;54.300;18.592;2022-11-22T13:39:12;0.60;97.91
67249;SHT31;63247;54.300;18.592;2022-11-22T13:42:00;0.56;98.15
67249;SHT31;63247;54.300;18.592;2022-11-22T13:47:42;0.57;98.40
67249;SHT31;63247;54.300;18.592;2022-11-22T13:53:24;0.58;98.35
67249;SHT31;63247;54.300;18.592;2022-11-22T13:55:49;0.56;98.72
67249;SHT31;63247;54.300;18.592;2022-11-22T14:03:33;0.62;98.87
67249;SHT31;63247;54.300;18.592;2022-11-22T14:06:00;0.57;99.23
67249;SHT31;63247;54.300;18.592;2022-11-22T14:08:38;0.58;99.25
67249;SHT31;63247;54.300;18.592;2022-11-22T14:11:37;0.60;99.49
67249;SHT31;63247;54.300;18.592;2022-11-22T14:17:32;0.49;99.66
67249;SHT31;63247;54.300;18.592;2022-11-22T14:26:00;0.53;99.80
67249;SHT31;63247;54.300;18.592;2022-11-22T14:29:01;0.54;99.95
67249;SHT31;63247;54.300;18.592;2022-11-22T14:31:34;0.50;99.99
67249;SHT31;63247;54.300;18.592;2022-11-22T14:34:14;0.57;99.82
67249;SHT31;63247;54.300;18.592;2022-11-22T14:36:39;0.57;99.86
67249;SHT31;63247;54.300;18.592;2022-11-22T14:47:44;0.56;99.53
67249;SHT31;63247;54.300;18.592;2022-11-22T14:50:24;0.57;99.19
67249;SHT31;63247;54.300;18.592;2022-11-22T14:52:51;0.65;98.87
67249;SHT31;63247;54.300;18.592;2022-11-22T14:55:22;0.68;98.71
67249;SHT31;63247;54.300;18.592;2022-11-22T14:58:00;0.68;98.48
67249;SHT31;63247;54.300;18.592;2022-11-22T15:12:00;0.65;98.83
67249;SHT31;63247;54.300;18.592;2022-11-22T15:17:18;0.75;98.87
67249;SHT31;63247;54.300;18.592;2022-11-22T15:19:46;0.77;98.94
67249;SHT31;63247;54.300;18.592;2022-11-22T15:22:18;0.81;98.73
67249;SHT31;63247;54.300;18.592;2022-11-22T15:24:50;0.82;98.71
67249;SHT31;63247;54.300;18.592;2022-11-22T15:27:20;0.82;98.43
67249;SHT31;63247;54.300;18.592;2022-11-22T15:29:47;0.81;98.37
67249;SHT31;63247;54.300;18.592;2022-11-22T15:32:30;0.84;98.49
67249;SHT31;63247;54.300;18.592;2022-11-22T15:34:55;0.77;98.51
67249;SHT31;63247;54.300;18.592;2022-11-22T15:37:33;0.75;98.73
67249;SHT31;63247;54.300;18.592;2022-11-22T15:40:14;0.82;98.80
67249;SHT31;63247;54.300;18.592;2022-11-22T15:42:54;0.85;99.00
67249;SHT31;63247;54.300;18.592;2022-11-22T15:45:23;0.81;99.39
67249;SHT31;63247;54.300;18.592;2022-11-22T15:47:58;0.78;99.28
67249;SHT31;63247;54.300;18.592;2022-11-22T15:50:25;0.78;99.26
67249;SHT31;63247;54.300;18.592;2022-11-22T15:52:52;0.84;99.03
67249;SHT31;63247;54.300;18.592;2022-11-22T15:55:21;0.70;99.39
67249;SHT31;63247;54.300;18.592;2022-11-22T15:57:52;0.85;99.05
67249;SHT31;63247;54.300;18.592;2022-11-22T16:00:26;0.82;99.20
67249;SHT31;63247;54.300;18.592;2022-11-22T16:02:57;0.78;99.37
67249;SHT31;63247;54.300;18.592;2022-11-22T16:05:36;0.84;98.85
67249;SHT31;63247;54.300;18.592;2022-11-22T16:08:03;0.81;98.86
67249;SHT31;63247;54.300;18.592;2022-11-22T16:13:10;0.81;98.90
67249;SHT31;63247;54.300;18.592;2022-11-22T16:15:37;0.75;99.12
67249;SHT31;63247;54.300;18.592;2022-11-22T16:20:41;0.82;98.86
67249;SHT31;63247;54.300;18.592;2022-11-22T16:28:27;0.75;99.19
67249;SHT31;63247;54.300;18.592;2022-11-22T16:30:54;0.84;98.94
67249;SHT31;63247;54.300;18.592;2022-11-22T16:33:20;0.77;98.99
67249;SHT31;63247;54.300;18.592;2022-11-22T16:35:54;0.80;98.68
67249;SHT31;63247;54.300;18.592;2022-11-22T16:38:20;0.80;98.64
67249;SHT31;63247;54.300;18.592;2022-11-22T16:40:47;0.81;98.50
67249;SHT31;63247;54.300;18.592;2022-11-22T16:43:18;0.78;98.43
67249;SHT31;63247;54.300;18.592;2022-11-22T16:45:44;0.78;98.28
67249;SHT31;63247;54.300;18.592;2022-11-22T16:48:22;0.78;98.44
67249;SHT31;63247;54.300;18.592;2022-11-22T16:50:55;0.89;97.88
67249;SHT31;63247;54.300;18.592;2022-11-22T16:53:21;0.88;97.95
67249;SHT31;63247;54.300;18.592;2022-11-22T16:55:46;0.93;97.58
67249;SHT31;63247;54.300;18.592;2022-11-22T16:58:18;0.93;97.20
67249;SHT31;63247;54.300;18.592;2022-11-22T17:00:44;0.95;97.08
67249;SHT31;63247;54.300;18.592;2022-11-22T17:03:13;0.98;97.16
67249;SHT31;63247;54.300;18.592;2022-11-22T17:05:39;0.96;97.02
67249;SHT31;63247;54.300;18.592;2022-11-22T17:08:16;0.92;96.74
67249;SHT31;63247;54.300;18.592;2022-11-22T17:10:45;1.01;96.40
67249;SHT31;63247;54.300;18.592;2022-11-22T17:13:22;0.92;96.87
67249;SHT31;63247;54.300;18.592;2022-11-22T17:15:53;0.96;96.62
67249;SHT31;63247;54.300;18.592;2022-11-22T17:18:19;1.05;96.59
67249;SHT31;63247;54.300;18.592;2022-11-22T17:20:44;0.98;96.72
67249;SHT31;63247;54.300;18.592;2022-11-22T17:23:39;1.01;97.12
67249;SHT31;63247;54.300;18.592;2022-11-22T17:26:05;0.96;97.00
67249;SHT31;63247;54.300;18.592;2022-11-22T17:28:30;1.02;97.09
67249;SHT31;63247;54.300;18.592;2022-11-22T17:30:59;0.87;97.28